createdAt,value
2019-05-10T00:02:01.507Z,74.26
2019-05-10T00:04:49.534Z,74.33
2019-05-10T00:07:37.460Z,74.64
2019-05-10T00:10:06.783Z,74.88
2019-05-10T00:12:40.076Z,75.06
2019-05-10T00:15:11.500Z,75.29
2019-05-10T00:17:41.556Z,75.36
2019-05-10T00:20:11.868Z,75.38
2019-05-10T00:22:41.876Z,75.41
2019-05-10T00:25:12.112Z,75.39
2019-05-10T00:27:42.269Z,75.29
2019-05-10T00:30:15.612Z,75.27
2019-05-10T00:32:45.704Z,75.63
2019-05-10T00:35:15.914Z,75.89
2019-05-10T00:37:46.188Z,75.88
2019-05-10T00:40:16.336Z,76.11
2019-05-10T00:42:46.383Z,76.18
2019-05-10T00:45:16.448Z,76.26
2019-05-10T00:47:46.443Z,76.58
2019-05-10T00:50:16.591Z,76.67
2019-05-10T00:52:46.790Z,76.90
2019-05-10T00:55:19.272Z,76.59
2019-05-10T00:57:48.486Z,76.59
2019-05-10T01:00:19.624Z,76.87
2019-05-10T01:02:49.641Z,76.71
2019-05-10T01:05:19.613Z,76.71
2019-05-10T01:07:49.713Z,76.88
2019-05-10T01:10:19.720Z,76.64
2019-05-10T01:12:49.715Z,77.17
2019-05-10T01:15:20.096Z,77.03
2019-05-10T01:17:51.590Z,77.53
2019-05-10T01:20:21.667Z,77.75
2019-05-10T01:22:53.153Z,77.70
2019-05-10T01:25:34.767Z,77.95
2019-05-10T01:27:54.955Z,77.77
2019-05-10T01:30:25.137Z,77.77
2019-05-10T01:32:55.288Z,77.78
2019-05-10T01:35:25.331Z,77.66
2019-05-10T01:37:55.406Z,77.85
2019-05-10T01:40:25.919Z,77.67
2019-05-10T01:42:55.935Z,77.67
2019-05-10T01:45:25.941Z,77.35
2019-05-10T01:47:55.928Z,77.66
2019-05-10T01:50:26.016Z,77.88
2019-05-10T01:52:57.168Z,78.35
2019-05-10T01:55:27.177Z,78.35
2019-05-10T01:57:57.157Z,78.32
2019-05-10T02:00:27.192Z,78.51
2019-05-10T02:02:57.189Z,78.69
2019-05-10T02:05:27.253Z,78.79
2019-05-10T02:07:57.253Z,79.06
2019-05-10T02:10:27.345Z,79.06
2019-05-10T02:12:57.396Z,79.18
2019-05-10T02:15:27.369Z,78.99
2019-05-10T02:17:57.379Z,79.03
2019-05-10T02:20:27.501Z,79.03
2019-05-10T02:22:57.516Z,79.14
2019-05-10T02:25:27.563Z,79.17
2019-05-10T02:27:57.581Z,79.04
2019-05-10T02:30:27.567Z,79.11
2019-05-10T02:32:57.635Z,79.25
2019-05-10T02:35:27.625Z,79.11
2019-05-10T02:37:59.143Z,79.11
2019-05-10T02:40:32.191Z,79.19
2019-05-10T02:43:02.192Z,79.23
2019-05-10T02:45:32.746Z,79.02
2019-05-10T02:48:02.768Z,79.02
2019-05-10T02:50:32.976Z,79.34
2019-05-10T02:53:03.248Z,79.38
2019-05-10T02:55:34.877Z,79.38
2019-05-10T02:58:07.178Z,79.48
2019-05-10T03:00:40.250Z,79.76
2019-05-10T03:03:12.085Z,79.83
2019-05-10T03:05:48.207Z,80.03
2019-05-10T03:08:15.988Z,80.30
2019-05-10T03:10:56.199Z,80.39
2019-05-10T03:13:30.301Z,80.21
2019-05-10T03:16:03.577Z,80.29
2019-05-10T03:18:35.322Z,80.00
2019-05-10T03:21:08.397Z,79.82
2019-05-10T03:23:38.483Z,79.81
2019-05-10T03:26:08.553Z,80.03
2019-05-10T03:28:38.567Z,79.99
2019-05-10T03:31:08.567Z,80.15
2019-05-10T03:33:38.585Z,80.55
2019-05-10T03:36:09.025Z,80.67
2019-05-10T03:38:39.393Z,81.15
2019-05-10T03:41:09.467Z,81.38
2019-05-10T03:43:39.496Z,81.38
2019-05-10T03:46:09.511Z,81.62
2019-05-10T03:48:39.545Z,81.62
2019-05-10T03:51:09.547Z,81.70
2019-05-10T03:53:42.527Z,82.27
2019-05-10T03:56:12.530Z,82.86
2019-05-10T03:58:42.552Z,82.86
2019-05-10T04:01:13.225Z,83.07
2019-05-10T04:03:43.259Z,83.55
2019-05-10T04:06:13.348Z,83.55
2019-05-10T04:08:43.443Z,83.68
2019-05-10T04:11:13.485Z,83.91
2019-05-10T04:13:43.510Z,84.15
2019-05-10T04:16:16.117Z,84.28
2019-05-10T04:18:45.270Z,84.59
2019-05-10T04:21:15.296Z,84.59
2019-05-10T04:23:45.305Z,84.82
2019-05-10T04:26:17.789Z,84.82
2019-05-10T04:28:47.826Z,84.97
2019-05-10T04:31:17.823Z,85.15
2019-05-10T04:33:47.854Z,84.97
2019-05-10T04:36:17.878Z,85.05
2019-05-10T04:38:47.914Z,85.32
2019-05-10T04:41:17.934Z,85.50
2019-05-10T04:43:47.961Z,85.63
2019-05-10T04:46:18.041Z,85.68
2019-05-10T04:48:48.147Z,85.70
2019-05-10T04:51:18.149Z,85.69
2019-05-10T04:53:48.192Z,85.92
2019-05-10T04:56:18.313Z,85.90
2019-05-10T04:58:48.392Z,85.87
2019-05-10T05:01:18.449Z,85.74
2019-05-10T05:03:48.459Z,85.56
2019-05-10T05:06:18.497Z,85.56
2019-05-10T05:08:48.512Z,85.57
2019-05-10T05:11:18.546Z,85.78
2019-05-10T05:13:48.540Z,85.78
2019-05-10T05:16:18.640Z,85.56
2019-05-10T05:18:49.418Z,85.58
2019-05-10T05:21:19.519Z,85.47
2019-05-10T05:23:49.528Z,85.37
2019-05-10T05:26:19.561Z,85.27
2019-05-10T05:28:49.562Z,85.30
2019-05-10T05:31:19.591Z,84.86
2019-05-10T05:33:49.747Z,83.86
2019-05-10T05:36:19.920Z,83.78
2019-05-10T05:38:49.930Z,83.37
2019-05-10T05:41:19.968Z,83.45
2019-05-10T05:43:50.007Z,83.65
2019-05-10T05:46:20.044Z,83.75
2019-05-10T05:48:51.631Z,83.47
2019-05-10T05:51:21.773Z,83.16
2019-05-10T05:53:51.839Z,82.75
2019-05-10T05:56:21.947Z,82.14
2019-05-10T05:58:51.950Z,82.56
2019-05-10T06:01:26.425Z,82.17
2019-05-10T06:03:53.704Z,80.81
2019-05-10T06:06:23.786Z,81.37
2019-05-10T06:08:54.490Z,81.10
2019-05-10T06:11:29.740Z,81.18
2019-05-10T06:13:57.272Z,80.42
2019-05-10T06:16:27.285Z,80.58
2019-05-10T06:18:57.343Z,80.16
2019-05-10T06:21:27.360Z,79.98
2019-05-10T06:23:59.392Z,78.49
2019-05-10T06:26:29.138Z,78.02
2019-05-10T06:29:03.738Z,77.19
2019-05-10T06:31:30.895Z,77.06
2019-05-10T06:34:00.922Z,76.06
2019-05-10T06:36:31.941Z,76.34
2019-05-10T06:39:02.035Z,76.37
2019-05-10T06:41:33.200Z,75.65
2019-05-10T06:44:03.277Z,74.61
2019-05-10T06:46:33.378Z,74.08
2019-05-10T06:49:08.295Z,74.15
2019-05-10T06:51:35.104Z,73.99
2019-05-10T06:54:05.208Z,73.06
2019-05-10T06:56:35.237Z,73.19
2019-05-10T06:59:13.574Z,73.10
2019-05-10T07:01:38.118Z,73.15
2019-05-10T07:04:08.825Z,73.81
2019-05-10T07:06:38.866Z,73.45
2019-05-10T07:09:10.263Z,71.63
2019-05-10T07:11:40.354Z,71.93
2019-05-10T07:14:10.527Z,71.00
2019-05-10T07:16:40.569Z,71.80
2019-05-10T07:19:10.637Z,72.31
2019-05-10T07:21:44.768Z,72.38
2019-05-10T07:24:12.395Z,72.82
2019-05-10T07:26:42.493Z,72.47
2019-05-10T07:29:28.747Z,72.95
2019-05-10T07:31:44.291Z,73.07
2019-05-10T07:34:15.841Z,73.49
2019-05-10T07:36:46.113Z,73.40
2019-05-10T07:39:16.194Z,73.58
2019-05-10T07:41:46.382Z,73.34
2019-05-10T07:44:16.407Z,73.39
2019-05-10T07:46:53.268Z,73.69
2019-05-10T07:49:18.232Z,73.72
2019-05-10T07:51:48.244Z,73.28
2019-05-10T07:54:18.263Z,72.53
2019-05-10T07:56:48.308Z,72.71
2019-05-10T07:59:22.050Z,73.00
2019-05-10T08:01:50.680Z,72.00
2019-05-10T08:04:29.102Z,71.92
2019-05-10T08:06:52.589Z,72.99
2019-05-10T08:09:22.733Z,73.12
2019-05-10T08:11:53.965Z,73.10
2019-05-10T08:14:25.484Z,73.33
2019-05-10T08:17:01.923Z,72.78
2019-05-10T08:19:32.696Z,73.27
2019-05-10T08:22:01.920Z,73.39
2019-05-10T08:24:35.144Z,74.69
2019-05-10T08:27:11.231Z,76.54
2019-05-10T08:29:35.555Z,78.55
2019-05-10T08:32:06.239Z,79.84
2019-05-10T08:34:39.349Z,80.60
2019-05-10T08:37:08.223Z,81.63
2019-05-10T08:39:45.666Z,82.17
2019-05-10T08:42:30.424Z,82.20
2019-05-10T08:44:43.841Z,82.90
2019-05-10T08:47:22.377Z,83.52
2019-05-10T08:50:06.439Z,82.98
2019-05-10T08:52:19.283Z,83.33
2019-05-10T08:54:49.754Z,82.77
2019-05-10T08:57:22.145Z,82.57
2019-05-10T08:59:56.109Z,83.34
2019-05-10T09:02:29.369Z,83.90
2019-05-10T09:04:55.068Z,83.88
2019-05-10T09:07:29.340Z,84.00
2019-05-10T09:09:57.952Z,84.20
2019-05-10T09:12:32.917Z,84.19
2019-05-10T09:15:09.379Z,84.06
2019-05-10T09:17:34.535Z,84.13
2019-05-10T09:20:06.227Z,84.07
2019-05-10T09:22:38.698Z,83.94
2019-05-10T09:25:09.373Z,83.97
2019-05-10T09:27:43.306Z,84.21
2019-05-10T09:30:18.542Z,84.91
2019-05-10T09:32:52.023Z,84.29
2019-05-10T09:35:22.327Z,84.19
2019-05-10T09:37:58.543Z,84.45
2019-05-10T09:40:26.375Z,83.47
2019-05-10T09:42:59.470Z,83.33
2019-05-10T09:45:32.277Z,83.87
2019-05-10T09:48:02.656Z,84.11
2019-05-10T09:50:41.275Z,84.33
2019-05-10T09:53:06.729Z,84.09
2019-05-10T09:55:36.995Z,83.11
2019-05-10T09:58:08.583Z,83.80
2019-05-10T10:00:38.838Z,84.19
2019-05-10T10:03:12.783Z,84.51
2019-05-10T10:05:41.029Z,85.09
2019-05-10T10:08:11.248Z,85.39
2019-05-10T10:10:42.979Z,85.46
2019-05-10T10:13:14.088Z,84.42
2019-05-10T10:15:49.509Z,84.42
2019-05-10T10:18:21.154Z,83.30
2019-05-10T10:20:48.289Z,82.95
2019-05-10T10:23:18.482Z,80.88
2019-05-10T10:25:48.615Z,80.93
2019-05-10T10:28:23.404Z,80.56
2019-05-10T10:30:59.951Z,79.24
2019-05-10T10:33:29.080Z,78.09
2019-05-10T10:36:04.842Z,78.30
2019-05-10T10:38:37.111Z,77.27
2019-05-10T10:41:05.233Z,76.40
2019-05-10T10:43:37.055Z,76.51
2019-05-10T10:46:11.898Z,75.98
2019-05-10T10:48:43.735Z,75.84
2019-05-10T10:51:12.562Z,76.96
2019-05-10T10:53:42.728Z,76.90
2019-05-10T10:56:12.816Z,76.25
2019-05-10T10:58:42.809Z,75.45
2019-05-10T11:01:21.726Z,75.37
2019-05-10T11:03:44.879Z,74.04
2019-05-10T11:06:16.054Z,73.00
2019-05-10T11:08:45.995Z,73.50
2019-05-10T11:11:16.034Z,73.31
2019-05-10T11:13:57.559Z,71.71
2019-05-10T11:16:18.031Z,70.74
2019-05-10T11:18:48.125Z,71.36
2019-05-10T11:21:18.195Z,69.20
2019-05-10T11:23:48.283Z,68.59
2019-05-10T11:26:21.731Z,67.96
2019-05-10T11:28:51.531Z,68.13
2019-05-10T11:31:22.396Z,66.10
2019-05-10T11:33:58.184Z,67.06
2019-05-10T11:36:24.167Z,67.77
2019-05-10T11:38:58.492Z,67.92
2019-05-10T11:41:26.277Z,69.07
2019-05-10T11:44:05.249Z,69.61
2019-05-10T11:46:31.021Z,70.48
2019-05-10T11:49:01.854Z,70.97
2019-05-10T11:51:33.109Z,71.22
2019-05-10T11:54:03.208Z,70.76
2019-05-10T11:56:33.774Z,71.62
2019-05-10T11:59:06.553Z,71.84
2019-05-10T12:01:41.503Z,71.07
2019-05-10T12:04:13.177Z,70.84
2019-05-10T12:06:41.206Z,69.19
2019-05-10T12:09:12.565Z,69.39
2019-05-10T12:11:51.903Z,71.94
2019-05-10T12:14:14.487Z,72.83
2019-05-10T12:16:45.474Z,73.14
2019-05-10T12:19:20.729Z,73.09
2019-05-10T12:21:47.744Z,73.07
2019-05-10T12:24:34.110Z,73.23
2019-05-10T12:27:17.457Z,71.94
2019-05-10T12:29:23.062Z,71.86
2019-05-10T12:31:56.867Z,71.04
2019-05-10T12:34:25.309Z,71.26
2019-05-10T12:36:57.532Z,68.33
2019-05-10T12:39:27.175Z,68.22
2019-05-10T12:41:57.175Z,65.78
2019-05-10T12:44:28.393Z,65.93
2019-05-10T12:47:01.159Z,64.55
2019-05-10T12:49:36.323Z,62.55
2019-05-10T12:52:09.133Z,62.06
2019-05-10T12:54:36.992Z,61.86
2019-05-10T12:57:08.639Z,60.32
2019-05-10T12:59:40.870Z,61.68
2019-05-10T13:02:13.067Z,61.40
2019-05-10T13:04:47.138Z,60.92
2019-05-10T13:07:15.444Z,60.47
2019-05-10T13:09:49.478Z,60.69
2019-05-10T13:12:17.287Z,57.67
2019-05-10T13:14:52.358Z,56.64
2019-05-10T13:17:19.019Z,57.80
2019-05-10T13:19:52.821Z,57.38
2019-05-10T13:22:20.951Z,57.50
2019-05-10T13:24:50.972Z,58.11
2019-05-10T13:27:21.236Z,57.14
2019-05-10T13:29:53.551Z,57.19
2019-05-10T13:32:25.971Z,56.87
2019-05-10T13:34:55.960Z,57.28
2019-05-10T13:37:25.982Z,57.69
2019-05-10T13:39:58.488Z,59.92
2019-05-10T13:42:27.699Z,60.00
2019-05-10T13:44:57.687Z,60.08
2019-05-10T13:47:27.914Z,60.54
2019-05-10T13:49:58.576Z,58.54
2019-05-10T13:52:38.119Z,58.81
2019-05-10T13:55:06.738Z,57.25
2019-05-10T13:57:38.185Z,56.04
2019-05-10T14:00:11.651Z,57.01
2019-05-10T14:02:41.922Z,59.25
2019-05-10T14:05:17.349Z,58.73
2019-05-10T14:07:50.930Z,58.87
2019-05-10T14:10:18.126Z,57.96
2019-05-10T14:12:48.338Z,59.83
2019-05-10T14:15:18.969Z,57.67
2019-05-10T14:17:49.070Z,56.93
2019-05-10T14:20:24.556Z,54.71
2019-05-10T14:22:55.672Z,53.81
2019-05-10T14:25:22.860Z,53.88
2019-05-10T14:27:52.881Z,54.26
2019-05-10T14:30:22.974Z,54.66
2019-05-10T14:32:52.991Z,53.36
2019-05-10T14:35:24.503Z,54.45
2019-05-10T14:37:54.691Z,54.80
2019-05-10T14:40:30.482Z,54.47
2019-05-10T14:42:56.450Z,52.93
2019-05-10T14:45:26.522Z,53.04
2019-05-10T14:47:56.701Z,52.21
2019-05-10T14:50:28.468Z,50.58
2019-05-10T14:52:58.740Z,51.53
2019-05-10T14:55:34.594Z,51.09
2019-05-10T14:58:04.663Z,50.41
2019-05-10T15:00:34.812Z,50.57
2019-05-10T15:03:05.125Z,49.84
2019-05-10T15:05:36.497Z,49.96
2019-05-10T15:08:06.730Z,49.23
2019-05-10T15:10:39.560Z,50.75
2019-05-10T15:13:08.687Z,51.97
2019-05-10T15:15:38.883Z,54.01
2019-05-10T15:18:09.021Z,54.48
2019-05-10T15:20:39.291Z,55.00
2019-05-10T15:23:09.488Z,55.93
2019-05-10T15:25:54.657Z,54.92
2019-05-10T15:28:11.371Z,53.17
2019-05-10T15:30:45.325Z,55.26
2019-05-10T15:33:13.107Z,54.43
2019-05-10T15:35:45.742Z,53.97
2019-05-10T15:38:16.166Z,53.38
2019-05-10T15:40:46.251Z,53.22
2019-05-10T15:43:18.775Z,52.30
2019-05-10T15:45:52.654Z,52.36
2019-05-10T15:48:22.077Z,50.00
2019-05-10T15:50:52.099Z,50.26
2019-05-10T15:53:25.415Z,50.96
2019-05-10T15:55:59.024Z,52.50
2019-05-10T15:58:25.585Z,52.96
2019-05-10T16:00:55.761Z,53.40
2019-05-10T16:03:25.857Z,52.18
2019-05-10T16:06:00.864Z,52.29
2019-05-10T16:08:30.178Z,50.94
2019-05-10T16:10:59.382Z,50.16
2019-05-10T16:13:29.546Z,51.65
2019-05-10T16:15:59.687Z,52.25
2019-05-10T16:18:33.480Z,52.52
2019-05-10T16:21:01.399Z,51.94
2019-05-10T16:23:31.410Z,51.32
2019-05-10T16:26:01.710Z,52.04
2019-05-10T16:28:31.728Z,51.62
2019-05-10T16:31:01.755Z,52.80
2019-05-10T16:33:31.821Z,54.53
2019-05-10T16:36:01.846Z,55.54
2019-05-10T16:38:31.946Z,54.56
2019-05-10T16:41:01.948Z,53.77
2019-05-10T16:43:33.669Z,54.19
2019-05-10T16:46:03.692Z,55.34
2019-05-10T16:48:37.684Z,55.10
2019-05-10T16:51:12.863Z,55.22
2019-05-10T16:53:45.918Z,55.60
2019-05-10T16:56:18.784Z,56.51
2019-05-10T16:58:53.210Z,56.45
2019-05-10T17:01:25.132Z,57.09
2019-05-10T17:03:59.656Z,56.64
2019-05-10T17:06:23.308Z,55.82
2019-05-10T17:08:53.332Z,57.00
2019-05-10T17:11:23.471Z,58.68
2019-05-10T17:13:55.587Z,58.31
2019-05-10T17:16:27.502Z,58.49
2019-05-10T17:18:57.604Z,58.16
2019-05-10T17:21:27.710Z,56.73
2019-05-10T17:24:01.592Z,57.24
2019-05-10T17:26:32.883Z,57.36
2019-05-10T17:29:07.346Z,58.02
2019-05-10T17:31:39.573Z,57.61
2019-05-10T17:34:06.770Z,57.49
2019-05-10T17:36:40.377Z,56.77
2019-05-10T17:39:13.168Z,57.28
2019-05-10T17:41:43.164Z,56.87
2019-05-10T17:44:17.415Z,57.58
2019-05-10T17:46:50.156Z,57.51
2019-05-10T17:49:19.513Z,57.25
2019-05-10T17:51:49.562Z,58.20
2019-05-10T17:54:19.637Z,58.91
2019-05-10T17:56:49.707Z,60.14
2019-05-10T17:59:19.723Z,59.58
2019-05-10T18:01:49.884Z,59.28
2019-05-10T18:04:25.653Z,60.44
2019-05-10T18:06:55.727Z,60.66
2019-05-10T18:09:27.487Z,61.59
2019-05-10T18:11:57.781Z,62.11
2019-05-10T18:14:29.604Z,61.43
2019-05-10T18:16:59.756Z,60.76
2019-05-10T18:19:29.767Z,60.70
2019-05-10T18:22:05.784Z,62.19
2019-05-10T18:24:36.312Z,61.34
2019-05-10T18:27:06.179Z,63.07
2019-05-10T18:29:36.176Z,64.37
2019-05-10T18:32:06.282Z,64.78
2019-05-10T18:34:36.347Z,65.08
2019-05-10T18:37:06.383Z,65.90
2019-05-10T18:39:36.420Z,66.35
2019-05-10T18:42:06.576Z,67.05
2019-05-10T18:44:36.575Z,66.79
2019-05-10T18:47:09.624Z,66.68
2019-05-10T18:49:39.900Z,66.56
2019-05-10T18:52:09.990Z,67.01
2019-05-10T18:54:39.992Z,67.68
2019-05-10T18:57:11.595Z,67.85
2019-05-10T18:59:45.390Z,68.17
2019-05-10T19:02:17.683Z,69.05
2019-05-10T19:04:45.661Z,69.84
2019-05-10T19:07:22.543Z,69.61
2019-05-10T19:09:53.623Z,69.66
2019-05-10T19:12:24.235Z,69.24
2019-05-10T19:14:54.758Z,69.65
2019-05-10T19:17:24.780Z,69.90
2019-05-10T19:19:54.936Z,70.49
2019-05-10T19:22:26.041Z,70.82
2019-05-10T19:24:57.039Z,71.01
2019-05-10T19:27:27.353Z,71.38
2019-05-10T19:29:57.348Z,71.82
2019-05-10T19:32:27.362Z,72.06
2019-05-10T19:34:58.896Z,72.43
2019-05-10T19:37:34.151Z,72.71
2019-05-10T19:40:00.900Z,72.95
2019-05-10T19:42:37.186Z,73.26
2019-05-10T19:45:12.854Z,73.60
2019-05-10T19:47:41.379Z,74.00
2019-05-10T19:50:11.544Z,74.83
2019-05-10T19:52:41.732Z,75.12
2019-05-10T19:55:12.864Z,75.49
2019-05-10T19:57:43.815Z,75.81
2019-05-10T20:00:14.749Z,76.29
2019-05-10T20:02:44.812Z,76.29
2019-05-10T20:05:15.575Z,76.48
2019-05-10T20:07:46.620Z,76.59
2019-05-10T20:10:16.863Z,76.75
2019-05-10T20:12:47.995Z,76.62
2019-05-10T20:15:18.656Z,76.88
2019-05-10T20:17:50.037Z,77.20
2019-05-10T20:20:20.249Z,77.31
2019-05-10T20:22:50.397Z,78.05
2019-05-10T20:25:20.817Z,77.92
2019-05-10T20:27:50.768Z,77.67
2019-05-10T20:30:22.115Z,77.95
2019-05-10T20:32:52.115Z,78.10
2019-05-10T20:35:22.144Z,78.73
2019-05-10T20:38:01.312Z,78.68
2019-05-10T20:40:24.019Z,79.04
2019-05-10T20:42:55.616Z,79.59
2019-05-10T20:45:25.612Z,79.77
2019-05-10T20:47:55.710Z,80.13
2019-05-10T20:50:26.191Z,80.76
2019-05-10T20:52:56.228Z,80.48
2019-05-10T20:55:26.233Z,80.33
2019-05-10T20:57:58.331Z,79.91
2019-05-10T21:00:28.422Z,79.80
2019-05-10T21:02:58.557Z,79.89
2019-05-10T21:05:28.537Z,80.00
2019-05-10T21:08:15.822Z,80.24
2019-05-10T21:10:32.399Z,80.73
2019-05-10T21:13:02.429Z,80.45
2019-05-10T21:15:32.538Z,80.28
2019-05-10T21:18:02.548Z,79.81
2019-05-10T21:20:32.570Z,80.03
2019-05-10T21:23:02.578Z,80.01
2019-05-10T21:25:32.606Z,80.50
2019-05-10T21:28:02.606Z,79.77
2019-05-10T21:30:32.716Z,80.29
2019-05-10T21:33:05.403Z,80.11
2019-05-10T21:35:35.424Z,80.47
2019-05-10T21:38:05.429Z,80.56
2019-05-10T21:40:35.450Z,80.73
2019-05-10T21:43:05.528Z,80.84
2019-05-10T21:45:35.616Z,80.77
2019-05-10T21:48:05.633Z,80.95
2019-05-10T21:50:35.704Z,80.94
2019-05-10T21:53:06.300Z,81.38
2019-05-10T21:55:36.311Z,82.37
2019-05-10T21:58:06.327Z,83.20
2019-05-10T22:00:38.177Z,83.55
2019-05-10T22:03:08.420Z,83.58
2019-05-10T22:05:38.571Z,83.97
2019-05-10T22:08:08.616Z,83.73
2019-05-10T22:10:39.181Z,83.70
2019-05-10T22:13:09.283Z,83.78
2019-05-10T22:15:39.427Z,83.62
2019-05-10T22:18:09.463Z,83.92
2019-05-10T22:20:39.457Z,83.96
2019-05-10T22:23:09.537Z,83.63
2019-05-10T22:25:39.550Z,83.56
2019-05-10T22:28:09.547Z,83.24
2019-05-10T22:30:39.576Z,83.47
2019-05-10T22:33:09.606Z,83.77
2019-05-10T22:35:40.701Z,83.95
2019-05-10T22:38:10.738Z,83.65
2019-05-10T22:40:40.803Z,82.90
2019-05-10T22:43:11.371Z,83.11
2019-05-10T22:45:41.459Z,82.86
2019-05-10T22:48:11.463Z,82.88
2019-05-10T22:50:41.885Z,83.58
2019-05-10T22:53:11.889Z,83.62
2019-05-10T22:55:41.917Z,83.48
2019-05-10T22:58:11.923Z,83.22
2019-05-10T23:00:42.078Z,82.96
2019-05-10T23:03:12.101Z,83.51
2019-05-10T23:05:42.189Z,83.32
2019-05-10T23:08:13.819Z,83.58
2019-05-10T23:10:44.008Z,83.53
2019-05-10T23:13:14.071Z,83.55
2019-05-10T23:15:44.089Z,84.12
2019-05-10T23:18:14.105Z,84.26
2019-05-10T23:20:44.112Z,84.26
2019-05-10T23:23:14.116Z,84.09
2019-05-10T23:25:46.897Z,84.48
2019-05-10T23:28:17.431Z,84.54
2019-05-10T23:30:47.583Z,84.58
2019-05-10T23:33:17.584Z,84.32
2019-05-10T23:35:47.607Z,84.49
2019-05-10T23:38:17.606Z,84.56
2019-05-10T23:40:47.636Z,84.15
2019-05-10T23:43:17.638Z,83.61
2019-05-10T23:45:47.673Z,83.56
2019-05-10T23:48:19.103Z,84.66
2019-05-10T23:50:49.129Z,84.54
2019-05-10T23:53:19.766Z,84.76
2019-05-10T23:55:49.782Z,84.62
2019-05-10T23:58:19.788Z,84.07
